Time;durP1;ratioP1;P1;durP2;ratioP2;P2;SDS_P1;SDS_P2;PMS_P1;PMS_P2;Temp;Humidity;BMP_temperature;BMP_pressure;BME280_temperature;BME280_humidity;BME280_pressure;Samples;Min_cycle;Max_cycle;Signal;HPM_P1;HPM_P2
2022/11/19 00:00:48;;;;;;;4.88;3.05;;;;;;;13.40;100.00;96514.31;4918019;29;20491;-73
2022/11/19 00:03:15;;;;;;;2.72;1.77;;;;;;;13.46;100.00;96519.13;4918257;29;20130;-72
2022/11/19 00:05:42;;;;;;;5.68;3.20;;;;;;;13.52;100.00;96484.50;4918219;29;20036;-73
2022/11/19 00:08:08;;;;;;;7.18;4.03;;;;;;;13.49;100.00;96482.09;4918185;29;20092;-73
2022/11/19 00:10:35;;;;;;;6.28;3.10;;;;;;;13.50;100.00;96504.44;4902189;29;20043;-73
2022/11/19 00:13:02;;;;;;;6.03;3.20;;;;;;;13.45;100.00;96499.47;4918316;29;20087;-74
2022/11/19 00:15:28;;;;;;;4.00;1.63;;;;;;;13.49;100.00;96506.28;4901926;29;20020;-74
2022/11/19 00:17:55;;;;;;;2.00;1.60;;;;;;;13.55;100.00;96478.84;4918024;29;20099;-73
2022/11/19 00:20:21;;;;;;;2.45;1.65;;;;;;;13.59;100.00;96484.78;4934694;29;20109;-74
2022/11/19 00:22:51;;;;;;;2.75;1.40;;;;;;;13.65;100.00;96467.25;4934820;29;20049;-74
2022/11/19 00:25:17;;;;;;;2.05;1.40;;;;;;;13.66;100.00;96472.47;4901987;29;20509;-73
2022/11/19 00:27:42;;;;;;;3.67;2.22;;;;;;;13.64;100.00;96485.22;4934874;29;20032;-73
2022/11/19 00:30:08;;;;;;;3.67;2.08;;;;;;;13.65;100.00;96494.13;4935067;29;20036;-74
2022/11/19 00:32:34;;;;;;;2.83;1.42;;;;;;;13.67;100.00;96486.78;4917622;29;20079;-73
2022/11/19 00:34:59;;;;;;;6.53;2.22;;;;;;;13.67;100.00;96484.94;4917706;29;20030;-73
2022/11/19 00:37:25;;;;;;;4.45;2.50;;;;;;;13.57;100.00;96476.00;4917281;29;20115;-73
2022/11/19 00:39:50;;;;;;;3.25;1.75;;;;;;;13.62;100.00;96471.09;4917381;29;20039;-74
2022/11/19 00:42:16;;;;;;;4.18;1.75;;;;;;;13.63;100.00;96447.75;4917503;29;20091;-73
2022/11/19 00:44:42;;;;;;;3.85;1.85;;;;;;;13.81;100.00;96454.94;4908175;29;20080;-74
2022/11/19 00:47:07;;;;;;;4.53;2.13;;;;;;;13.76;100.00;96449.16;4897803;29;20485;-74
2022/11/19 00:49:33;;;;;;;1.33;1.05;;;;;;;13.90;100.00;96458.66;4898190;29;20028;-72
2022/11/19 00:51:58;;;;;;;1.10;1.00;;;;;;;13.81;100.00;96472.94;4898497;29;20056;-72
2022/11/19 00:54:24;;;;;;;2.03;1.30;;;;;;;13.81;100.00;96479.13;4898182;29;20088;-73
2022/11/19 00:56:49;;;;;;;5.07;1.90;;;;;;;13.79;100.00;96485.66;4915115;29;20063;-74
2022/11/19 00:59:15;;;;;;;2.15;1.27;;;;;;;13.79;100.00;96477.59;4915041;29;20056;-73
2022/11/19 01:01:41;;;;;;;3.42;1.50;;;;;;;13.81;100.00;96478.31;4915095;29;20028;-73
2022/11/19 01:04:06;;;;;;;3.63;1.40;;;;;;;13.80;100.00;96473.91;4898253;29;20028;-73
2022/11/19 01:06:32;;;;;;;4.30;1.40;;;;;;;13.86;100.00;96476.88;4914982;29;20191;-73
2022/11/19 01:08:58;;;;;;;4.03;1.15;;;;;;;13.84;100.00;96467.28;4898227;29;20045;-73
2022/11/19 01:11:29;;;;;;;1.60;1.17;;;;;;;13.89;100.00;96468.53;4914807;29;20042;-74
2022/11/19 01:13:55;;;;;;;1.73;1.00;;;;;;;13.95;100.00;96453.69;4897862;29;20098;-73
2022/11/19 01:16:26;;;;;;;5.05;1.80;;;;;;;14.01;100.00;96458.47;4914974;29;20377;-74
2022/11/19 01:18:52;;;;;;;5.55;2.80;;;;;;;13.94;100.00;96460.03;4897921;29;20449;-73
2022/11/19 01:21:20;;;;;;;5.68;2.25;;;;;;;14.02;100.00;96454.81;4915219;29;20031;-73
2022/11/19 01:23:46;;;;;;;2.38;1.52;;;;;;;14.00;100.00;96451.41;4897922;29;20039;-73
2022/11/19 01:26:12;;;;;;;5.35;2.13;;;;;;;14.04;100.00;96453.69;4882368;29;20035;-73
2022/11/19 01:28:38;;;;;;;0.90;0.82;;;;;;;14.11;100.00;96453.94;4897640;29;20035;-73
2022/11/19 01:31:11;;;;;;;9.52;5.13;;;;;;;14.08;100.00;96456.94;4914765;29;20059;-74
2022/11/19 01:33:37;;;;;;;4.40;2.40;;;;;;;14.11;100.00;96453.94;4881961;29;20036;-73
2022/11/19 01:36:09;;;;;;;5.13;2.75;;;;;;;14.17;100.00;96455.22;4932966;29;20172;-73
2022/11/19 01:38:35;;;;;;;6.13;3.83;;;;;;;14.12;100.00;96453.78;4933752;29;20028;-73
2022/11/19 01:41:01;;;;;;;1.15;1.00;;;;;;;14.13;100.00;96450.13;4916405;29;20416;-73
2022/11/19 01:43:48;;;;;;;9.00;3.83;;;;;;;14.16;100.00;96454.38;4933604;29;20107;-73
2022/11/19 01:46:27;;;;;;;4.70;2.47;;;;;;;14.11;100.00;96444.06;4933548;29;20038;-73
2022/11/19 01:49:09;;;;;;;13.80;6.75;;;;;;;14.09;100.00;96450.53;4933361;29;20050;-74
2022/11/19 01:51:41;;;;;;;7.00;3.40;;;;;;;14.02;100.00;96438.69;4933637;29;20023;-73
2022/11/19 01:54:33;;;;;;;5.55;2.55;;;;;;;13.99;100.00;96442.50;4897928;29;20788;-73
2022/11/19 01:57:02;;;;;;;2.22;1.50;;;;;;;14.06;100.00;96450.81;4901452;29;20544;-73
2022/11/19 01:59:29;;;;;;;1.92;0.88;;;;;;;13.94;100.00;96442.06;4901622;29;20024;-73
2022/11/19 02:01:55;;;;;;;2.45;1.02;;;;;;;13.99;100.00;96438.97;4901047;29;20028;-73
2022/11/19 02:04:21;;;;;;;3.63;0.73;;;;;;;14.02;100.00;96427.94;4901579;29;20105;-73
2022/11/19 02:06:47;;;;;;;2.38;1.20;;;;;;;14.00;100.00;96416.44;4901431;29;20463;-73
2022/11/19 02:09:13;;;;;;;0.73;0.65;;;;;;;14.04;100.00;96431.31;4918111;29;20024;-74
2022/11/19 02:12:03;;;;;;;1.55;0.85;;;;;;;14.10;100.00;96442.34;4901361;29;20023;-74
2022/11/19 02:14:32;;;;;;;2.40;0.85;;;;;;;14.08;100.00;96441.66;4918067;29;20040;-74
2022/11/19 02:17:03;;;;;;;1.10;0.70;;;;;;;14.09;100.00;96447.84;4918009;29;20480;-74
2022/11/19 02:19:52;;;;;;;2.08;1.40;;;;;;;14.08;100.00;96441.66;4918090;29;20042;-74
2022/11/19 02:22:47;;;;;;;1.45;1.00;;;;;;;14.09;100.00;96434.41;4901214;29;20568;-74
2022/11/19 02:25:31;;;;;;;1.08;0.68;;;;;;;14.05;100.00;96427.63;4917940;29;20122;-74
2022/11/19 02:27:59;;;;;;;21.15;8.23;;;;;;;14.05;100.00;96428.50;4917577;29;20030;-73
2022/11/19 02:30:26;;;;;;;2.30;1.80;;;;;;;14.03;100.00;96434.97;4900886;29;20031;-74
2022/11/19 02:33:30;;;;;;;2.95;1.65;;;;;;;14.04;100.00;96431.31;4885408;29;20403;-73
2022/11/19 02:36:05;;;;;;;4.00;1.90;;;;;;;13.94;100.00;96436.69;4880674;29;20397;-74
2022/11/19 02:39:05;;;;;;;2.42;1.35;;;;;;;13.97;100.00;96431.03;4885043;29;20032;-73
2022/11/19 02:41:42;;;;;;;2.88;1.33;;;;;;;13.96;100.00;96445.50;4913677;29;20548;-74
2022/11/19 02:47:04;;;;;;;1.08;0.93;;;;;;;13.89;100.00;96457.78;4936491;29;20113;-74
2022/11/19 02:49:32;;;;;;;2.00;1.42;;;;;;;13.92;100.00;96459.34;4903925;29;20480;-74
2022/11/19 02:51:59;;;;;;;2.65;1.38;;;;;;;13.91;100.00;96463.88;4936300;29;20072;-72
2022/11/19 02:54:26;;;;;;;4.82;2.67;;;;;;;13.89;100.00;96465.84;4919719;29;20201;-73
2022/11/19 02:56:54;;;;;;;5.13;2.45;;;;;;;13.92;100.00;96467.41;4919496;29;20032;-74
2022/11/19 03:06:08;;;;;;;1.60;1.10;;;;;;;14.06;100.00;96469.66;4900793;29;20132;-73
2022/11/19 03:08:34;;;;;;;1.40;1.00;;;;;;;14.09;100.00;96466.69;4899584;29;20023;-74
2022/11/19 03:11:22;;;;;;;3.58;1.42;;;;;;;14.14;100.00;96475.19;4884161;29;20024;-74
2022/11/19 03:17:20;;;;;;;1.98;1.55;;;;;;;14.25;100.00;96507.28;4917456;29;20128;-73
2022/11/19 03:20:04;;;;;;;2.75;2.08;;;;;;;14.18;100.00;96506.16;4900500;29;20047;-74
2022/11/19 03:22:41;;;;;;;4.93;1.73;;;;;;;14.12;100.00;96504.88;4899939;29;20032;-73
2022/11/19 03:25:06;;;;;;;7.85;3.58;;;;;;;14.12;100.00;96509.41;4899746;29;20028;-73
2022/11/19 03:27:38;;;;;;;3.90;1.90;;;;;;;14.05;100.00;96492.19;4899732;29;20038;-73
2022/11/19 03:30:04;;;;;;;3.67;1.60;;;;;;;14.04;100.00;96495.84;4899856;29;20120;-73
2022/11/19 03:32:59;;;;;;;2.63;1.40;;;;;;;14.06;100.00;96500.09;4899792;29;20424;-74
2022/11/19 03:35:29;;;;;;;1.73;1.25;;;;;;;14.07;100.00;96509.84;4861183;29;20504;-74
2022/11/19 03:37:58;;;;;;;1.00;0.90;;;;;;;14.04;100.00;96502.06;4899730;29;20027;-74
2022/11/19 03:40:24;;;;;;;3.85;0.90;;;;;;;14.06;100.00;96512.66;4883930;29;20048;-74
2022/11/19 03:42:52;;;;;;;1.02;0.70;;;;;;;14.05;100.00;96511.84;4884179;29;20047;-74
2022/11/19 03:45:19;;;;;;;2.00;1.05;;;;;;;14.07;100.00;96500.94;4899552;29;20031;-74
2022/11/19 03:47:47;;;;;;;2.85;1.10;;;;;;;14.05;100.00;96519.06;4899670;29;20032;-75
2022/11/19 03:50:28;;;;;;;6.30;3.15;;;;;;;13.82;100.00;96518.47;4899290;29;20043;-74
2022/11/19 03:52:55;;;;;;;14.43;5.45;;;;;;;13.71;100.00;96525.81;4916548;29;20469;-73
2022/11/19 03:55:28;;;;;;;10.90;4.57;;;;;;;13.49;100.00;96543.03;4899356;29;20044;-73
2022/11/19 03:57:53;;;;;;;10.93;5.63;;;;;;;13.28;100.00;96559.22;4899311;29;20500;-74
2022/11/19 04:00:19;;;;;;;21.38;6.55;;;;;;;13.07;100.00;96566.47;4899391;29;20039;-74
2022/11/19 04:02:44;;;;;;;14.13;6.40;;;;;;;13.00;100.00;96579.56;4915931;29;20104;-73
2022/11/19 04:05:10;;;;;;;20.10;6.05;;;;;;;12.90;100.00;96604.63;4899521;29;20100;-73
2022/11/19 04:07:35;;;;;;;14.43;6.25;;;;;;;12.81;100.00;96610.81;4915969;29;20036;-73
2022/11/19 04:10:01;;;;;;;7.32;4.13;;;;;;;12.58;100.00;96593.97;4899204;29;20097;-73
2022/11/19 04:12:26;;;;;;;10.32;4.43;;;;;;;12.49;100.00;96624.25;4899252;29;20040;-73
2022/11/19 04:15:10;;;;;;;5.80;3.42;;;;;;;12.44;100.00;96632.72;4916083;29;20466;-73
2022/11/19 04:17:36;;;;;;;4.18;1.70;;;;;;;12.54;100.00;96654.25;4915467;29;20028;-73
2022/11/19 04:20:02;;;;;;;9.18;1.65;;;;;;;12.52;100.00;96654.34;4915874;29;20024;-73
2022/11/19 04:22:27;;;;;;;2.80;1.70;;;;;;;12.44;100.00;96670.25;4915910;29;20043;-74
2022/11/19 04:24:53;;;;;;;2.53;1.83;;;;;;;12.34;100.00;96660.41;4920144;29;20027;-74
2022/11/19 04:27:18;;;;;;;3.17;1.95;;;;;;;12.31;100.00;96674.94;4934763;29;20023;-74
2022/11/19 04:29:44;;;;;;;3.33;2.40;;;;;;;12.26;100.00;96697.75;4917359;29;20502;-73
2022/11/19 04:32:09;;;;;;;4.40;2.53;;;;;;;12.25;100.00;96704.06;4917653;29;20035;-72
2022/11/19 04:34:35;;;;;;;6.32;2.75;;;;;;;12.17;100.00;96726.16;4917450;29;20031;-73
2022/11/19 04:37:00;;;;;;;4.85;3.10;;;;;;;12.13;100.00;96732.75;4917461;29;20408;-73
2022/11/19 04:39:26;;;;;;;4.00;2.70;;;;;;;12.04;100.00;96728.13;4901739;29;20402;-73
2022/11/19 04:41:51;;;;;;;3.78;2.00;;;;;;;12.04;100.00;96754.94;4934523;29;20447;-73
2022/11/19 04:44:17;;;;;;;4.45;2.40;;;;;;;11.99;100.00;96767.88;4901746;29;20039;-73
2022/11/19 04:46:43;;;;;;;3.97;2.50;;;;;;;11.98;100.00;96784.91;4900213;29;20558;-72
2022/11/19 04:49:08;;;;;;;5.10;2.58;;;;;;;11.83;100.00;96784.31;4898579;29;20050;-72
2022/11/19 04:51:34;;;;;;;3.58;2.60;;;;;;;11.81;100.00;96796.94;4915524;29;20031;-72
2022/11/19 04:53:59;;;;;;;4.85;2.40;;;;;;;11.79;100.00;96804.25;4898502;29;20031;-72
2022/11/19 04:56:25;;;;;;;4.90;2.08;;;;;;;11.82;100.00;96808.53;4923032;29;20098;-72
2022/11/19 04:58:50;;;;;;;3.63;2.47;;;;;;;11.80;100.00;96807.81;4933802;29;20147;-72
2022/11/19 05:01:16;;;;;;;2.53;1.92;;;;;;;11.71;100.00;96816.56;4902893;29;20024;-72
2022/11/19 05:03:41;;;;;;;8.35;2.95;;;;;;;11.67;100.00;96831.13;4906538;29;20039;-72
2022/11/19 05:06:07;;;;;;;4.50;2.67;;;;;;;11.60;100.00;96829.88;4917124;29;20083;-72
2022/11/19 05:08:32;;;;;;;5.97;3.47;;;;;;;11.64;100.00;96858.16;4901323;29;20028;-72
2022/11/19 05:10:58;;;;;;;5.53;3.05;;;;;;;11.66;100.00;96877.66;4916861;29;20027;-72
2022/11/19 05:13:23;;;;;;;6.72;3.45;;;;;;;11.64;100.00;96874.22;4934156;29;20031;-72
2022/11/19 05:15:51;;;;;;;6.63;3.13;;;;;;;11.59;100.00;96876.41;4932495;29;20031;-72
2022/11/19 05:18:17;;;;;;;5.63;3.45;;;;;;;11.57;100.00;96892.59;4897870;29;20028;-72
2022/11/19 05:20:42;;;;;;;5.70;3.90;;;;;;;11.56;100.00;96893.56;4914831;29;20538;-72
2022/11/19 05:23:08;;;;;;;9.40;5.90;;;;;;;11.53;100.00;96904.53;4882448;29;20028;-72
2022/11/19 05:25:34;;;;;;;6.88;3.97;;;;;;;11.54;100.00;96914.25;4914768;29;20027;-73
2022/11/19 05:27:59;;;;;;;6.22;3.63;;;;;;;11.54;100.00;96924.09;4914667;29;20028;-74
2022/11/19 05:30:25;;;;;;;8.02;4.18;;;;;;;11.62;100.00;96924.41;4882109;29;20488;-73
2022/11/19 05:32:50;;;;;;;7.60;4.07;;;;;;;11.65;100.00;96916.97;4897056;29;20456;-73
2022/11/19 05:35:16;;;;;;;5.95;3.95;;;;;;;11.69;100.00;96925.66;4882147;29;20060;-72
2022/11/19 05:37:41;;;;;;;9.65;4.05;;;;;;;11.70;100.00;96927.38;4923484;29;20027;-73
2022/11/19 05:40:07;;;;;;;11.45;6.57;;;;;;;11.73;100.00;96924.44;4916641;29;20035;-73
2022/11/19 05:42:33;;;;;;;10.43;5.90;;;;;;;11.73;100.00;96927.13;4916747;29;20043;-72
2022/11/19 05:44:58;;;;;;;15.52;7.45;;;;;;;11.71;100.00;96924.59;4912343;29;20023;-71
2022/11/19 05:47:24;;;;;;;17.55;9.40;;;;;;;11.68;100.00;96935.50;4907153;29;20086;-72
2022/11/19 05:49:49;;;;;;;11.20;6.57;;;;;;;11.71;100.00;96942.47;4911726;29;20103;-75
2022/11/19 05:52:15;;;;;;;14.02;8.40;;;;;;;11.68;100.00;96951.56;4911970;29;20036;-72
2022/11/19 05:54:40;;;;;;;13.05;8.00;;;;;;;11.64;100.00;96957.25;4911245;29;20120;-73
2022/11/19 05:57:12;;;;;;;22.13;10.15;;;;;;;11.72;100.00;96962.94;4907345;29;20048;-73
2022/11/19 05:59:37;;;;;;;25.17;15.40;;;;;;;11.76;100.00;96969.75;4914453;29;20505;-74
2022/11/19 06:02:03;;;;;;;23.33;11.20;;;;;;;11.84;100.00;96986.13;4904406;29;20376;-73
2022/11/19 06:04:29;;;;;;;25.23;11.45;;;;;;;11.88;100.00;96993.81;4907639;29;20036;-76
2022/11/19 06:06:55;;;;;;;18.40;10.10;;;;;;;11.89;100.00;96997.34;4905534;29;20091;-73
2022/11/19 06:09:21;;;;;;;17.98;9.77;;;;;;;11.97;100.00;96978.84;4898432;29;20028;-71
2022/11/19 06:11:46;;;;;;;18.42;8.05;;;;;;;11.95;100.00;96975.44;4899436;29;20400;-72
2022/11/19 06:14:15;;;;;;;14.65;7.68;;;;;;;11.97;100.00;96961.94;4911721;29;20024;-73
2022/11/19 06:16:41;;;;;;;15.32;7.65;;;;;;;12.07;100.00;96979.00;4886687;29;20119;-73
2022/11/19 06:19:07;;;;;;;18.45;7.00;;;;;;;12.17;100.00;96986.22;4911321;29;20527;-72
2022/11/19 06:21:33;;;;;;;9.52;4.78;;;;;;;12.27;100.00;96989.06;4879324;29;20032;-72
2022/11/19 06:23:58;;;;;;;9.82;6.05;;;;;;;12.28;100.00;96994.28;4911317;29;20020;-73
2022/11/19 06:26:25;;;;;;;7.40;4.00;;;;;;;12.41;100.00;97005.78;4911516;29;20116;-71
2022/11/19 06:28:51;;;;;;;52.95;30.23;;;;;;;12.52;100.00;97012.13;4894583;29;20032;-72
2022/11/19 06:31:17;;;;;;;23.60;10.23;;;;;;;12.61;100.00;97001.53;4894429;29;20041;-72
2022/11/19 06:33:42;;;;;;;7.63;4.57;;;;;;;12.77;100.00;97006.50;4895323;29;20040;-74
2022/11/19 06:36:08;;;;;;;9.10;5.20;;;;;;;13.05;100.00;97017.63;4911334;29;20031;-71
2022/11/19 06:38:34;;;;;;;11.00;6.55;;;;;;;13.21;100.00;97019.09;4911684;29;20026;-70
2022/11/19 06:40:59;;;;;;;14.18;6.88;;;;;;;13.39;100.00;97015.78;4910284;29;20103;-74
2022/11/19 06:43:25;;;;;;;11.55;6.72;;;;;;;13.53;100.00;97015.47;4920705;29;20028;-73
2022/11/19 06:45:50;;;;;;;25.25;13.93;;;;;;;13.65;100.00;97018.16;4907748;29;20127;-72
2022/11/19 06:48:16;;;;;;;23.63;11.35;;;;;;;13.87;100.00;97010.03;4914911;29;20032;-72
2022/11/19 06:50:43;;;;;;;25.17;12.75;;;;;;;14.04;100.00;97014.81;4908116;29;20114;-73
2022/11/19 06:53:08;;;;;;;35.53;19.10;;;;;;;14.20;100.00;97014.38;4885381;29;20499;-72
2022/11/19 06:55:34;;;;;;;18.98;11.15;;;;;;;13.97;100.00;96990.28;4921496;29;20028;-73
2022/11/19 06:58:03;;;;;;;96.90;51.60;;;;;;;13.97;100.00;96984.06;4930048;29;20051;-72
2022/11/19 07:00:29;;;;;;;28.20;14.43;;;;;;;13.99;100.00;96985.66;4904762;29;20684;-73
2022/11/19 07:02:54;;;;;;;28.30;15.52;;;;;;;14.27;100.00;96996.75;4898280;29;20035;-72
2022/11/19 07:05:19;;;;;;;24.27;14.10;;;;;;;14.33;100.00;96999.81;4914513;29;20036;-72
2022/11/19 07:07:45;;;;;;;34.10;17.13;;;;;;;14.55;100.00;97002.31;4882522;29;20043;-72
2022/11/19 07:10:11;;;;;;;32.40;17.20;;;;;;;14.67;100.00;96996.88;4899059;29;20493;-73
2022/11/19 07:12:36;;;;;;;22.75;12.23;;;;;;;14.89;100.00;96985.94;4933136;29;20491;-73
2022/11/19 07:15:02;;;;;;;14.70;7.05;;;;;;;14.95;100.00;96969.25;4909864;29;20483;-72
2022/11/19 07:17:27;;;;;;;10.65;6.50;;;;;;;14.82;100.00;96957.84;4906485;29;20034;-72
2022/11/19 07:19:53;;;;;;;22.05;13.18;;;;;;;14.70;100.00;96956.25;4919783;29;20118;-72
2022/11/19 07:22:18;;;;;;;9.55;6.28;;;;;;;14.56;100.00;96955.59;4932926;29;20059;-72
2022/11/19 07:24:44;;;;;;;19.92;11.43;;;;;;;14.54;100.00;96962.09;4911419;29;20046;-73
2022/11/19 07:27:10;;;;;;;13.25;7.53;;;;;;;14.71;100.00;96966.84;4930867;29;20038;-74
2022/11/19 07:29:37;;;;;;;6.97;4.65;;;;;;;14.75;100.00;96945.91;4905088;29;20118;-73
2022/11/19 07:32:03;;;;;;;7.53;4.82;;;;;;;14.82;100.00;96957.84;4899811;29;20032;-79
2022/11/19 07:34:29;;;;;;;11.93;5.30;;;;;;;14.85;100.00;96946.81;4883222;29;20040;-77
2022/11/19 07:36:54;;;;;;;8.70;4.80;;;;;;;14.78;100.00;96938.41;4883940;29;20568;-78
2022/11/19 07:39:20;;;;;;;9.45;5.05;;;;;;;14.90;100.00;96950.78;4885189;29;20032;-77
2022/11/19 07:44:29;;;;;;;11.10;5.30;;;;;;;15.81;100.00;96965.91;4913258;29;20055;-77
2022/11/19 07:46:55;;;;;;;13.10;6.53;;;;;;;15.77;100.00;96956.38;4913097;29;20028;-77
2022/11/19 07:49:20;;;;;;;11.15;5.72;;;;;;;15.82;100.00;96946.00;4891634;29;20059;-77
2022/11/19 07:51:46;;;;;;;9.75;6.07;;;;;;;15.62;100.00;96951.41;4899685;29;20024;-79
2022/11/19 07:54:13;;;;;;;10.95;6.63;;;;;;;15.85;100.00;96953.81;4891378;29;20515;-80
2022/11/19 07:56:39;;;;;;;13.32;6.43;;;;;;;17.44;100.00;96987.09;4900747;29;20124;-80
2022/11/19 07:59:05;;;;;;;14.98;7.20;;;;;;;18.76;90.87;96971.81;4911657;29;20070;-79
2022/11/19 08:01:31;;;;;;;10.48;6.32;;;;;;;19.04;86.54;96948.09;4901216;29;20120;-77
2022/11/19 08:03:56;;;;;;;15.80;7.53;;;;;;;19.73;82.00;96939.69;4888013;29;20049;-78
2022/11/19 08:06:24;;;;;;;12.35;5.03;;;;;;;19.46;79.23;96913.69;4891293;29;20031;-77
2022/11/19 08:08:50;;;;;;;17.13;9.32;;;;;;;19.18;81.03;96909.50;4908283;29;20027;-77
2022/11/19 08:11:16;;;;;;;11.57;4.70;;;;;;;20.11;76.40;96925.50;4883436;29;20110;-77
2022/11/19 08:13:42;;;;;;;7.05;4.72;;;;;;;20.35;73.55;96914.66;4899048;29;20424;-77
2022/11/19 08:16:10;;;;;;;7.25;4.22;;;;;;;19.92;73.72;96899.53;4905661;29;20091;-78
2022/11/19 08:18:36;;;;;;;6.65;4.93;;;;;;;19.50;75.50;96896.09;4894469;29;20031;-77
2022/11/19 08:21:03;;;;;;;6.50;4.63;;;;;;;19.28;78.73;96918.34;4896487;29;20032;-78
2022/11/19 08:23:29;;;;;;;10.05;5.55;;;;;;;19.21;78.01;96906.44;4902731;29;20071;-78
2022/11/19 08:25:55;;;;;;;11.00;4.50;;;;;;;18.89;78.87;96899.88;4889630;29;20032;-78
2022/11/19 08:28:20;;;;;;;10.93;5.30;;;;;;;18.29;83.16;96907.13;4892147;29;20027;-77
2022/11/19 08:30:46;;;;;;;7.47;4.32;;;;;;;18.17;87.17;96921.06;4889702;29;20051;-78
2022/11/19 08:33:11;;;;;;;23.40;6.50;;;;;;;17.98;86.45;96908.56;4890702;29;20389;-79
2022/11/19 08:35:37;;;;;;;16.48;7.95;;;;;;;17.57;90.08;96915.44;4907849;29;20031;-78
2022/11/19 08:38:05;;;;;;;16.85;9.13;;;;;;;17.02;97.98;96929.97;4884555;29;20143;-77
2022/11/19 08:40:31;;;;;;;11.75;6.88;;;;;;;16.78;100.00;96928.69;4907352;29;20360;-77
2022/11/19 08:42:59;;;;;;;39.33;9.80;;;;;;;16.82;100.00;96936.47;4888527;29;20510;-76
2022/11/19 08:45:33;;;;;;;32.70;7.90;;;;;;;17.02;98.83;96938.09;4884760;29;20040;-76
2022/11/19 08:48:00;;;;;;;11.38;6.90;;;;;;;17.04;100.00;96936.09;4911491;29;20123;-77
2022/11/19 08:50:26;;;;;;;57.33;9.63;;;;;;;17.73;97.45;96941.81;4899154;29;20027;-79
2022/11/19 08:53:03;;;;;;;18.45;7.03;;;;;;;18.34;91.06;96937.28;4906120;29;20524;-78
2022/11/19 08:55:29;;;;;;;14.68;7.85;;;;;;;19.13;87.05;96944.41;4890446;29;20026;-78
2022/11/19 08:58:05;;;;;;;20.63;8.25;;;;;;;20.44;78.59;96945.38;4888499;29;20070;-78
2022/11/19 09:00:32;;;;;;;7.72;4.90;;;;;;;20.67;75.65;96921.94;4891424;29;20035;-78
2022/11/19 09:02:59;;;;;;;7.07;4.75;;;;;;;22.27;70.58;96947.75;4886894;29;20476;-78
2022/11/19 09:05:25;;;;;;;6.90;4.22;;;;;;;23.81;63.87;96934.13;4916015;29;20036;-77
2022/11/19 09:07:53;;;;;;;4.85;3.78;;;;;;;24.78;58.79;96921.69;4881614;29;20142;-77
2022/11/19 09:10:19;;;;;;;5.38;4.40;;;;;;;24.63;55.71;96896.31;4907336;29;20074;-77
2022/11/19 09:12:45;;;;;;;6.43;4.18;;;;;;;25.27;53.27;96891.50;4883657;29;20060;-78
2022/11/19 09:15:10;;;;;;;4.57;3.50;;;;;;;24.43;54.17;96873.41;4897842;29;20039;-77
2022/11/19 09:17:36;;;;;;;7.57;3.83;;;;;;;24.64;52.32;96856.97;4881892;29;20092;-77
2022/11/19 09:20:02;;;;;;;2.78;2.42;;;;;;;22.98;55.36;96849.09;4886233;29;20030;-77
2022/11/19 09:22:30;;;;;;;5.18;3.60;;;;;;;21.58;60.34;96856.97;4900748;29;20027;-76
2022/11/19 09:24:55;;;;;;;6.93;3.97;;;;;;;21.73;63.16;96885.09;4889141;29;20412;-78
2022/11/19 09:27:21;;;;;;;3.83;2.80;;;;;;;22.78;57.89;96881.53;4898055;29;20032;-77
2022/11/19 09:29:46;;;;;;;4.78;2.75;;;;;;;23.84;55.15;96872.84;4899260;29;20051;-78
2022/11/19 09:32:12;;;;;;;11.00;4.57;;;;;;;23.10;57.69;96863.94;4900830;29;20190;-76
2022/11/19 09:34:39;;;;;;;62.88;9.43;;;;;;;21.29;63.51;96857.63;4900393;29;20100;-78
2022/11/19 09:37:06;;;;;;;11.68;4.65;;;;;;;21.12;64.60;96852.47;4887484;29;20036;-78
2022/11/19 09:39:32;;;;;;;8.60;4.85;;;;;;;21.16;66.05;96878.28;4885276;29;20040;-77
2022/11/19 09:42:30;;;;;;;4.65;3.20;;;;;;;21.14;63.79;96855.84;4916525;29;20087;-77
2022/11/19 09:45:06;;;;;;;6.28;3.38;;;;;;;20.39;67.24;96841.81;4899522;29;20060;-77
2022/11/19 09:47:46;;;;;;;6.38;3.63;;;;;;;20.43;67.31;96862.16;4932158;29;20031;-76
2022/11/19 09:50:17;;;;;;;8.65;3.70;;;;;;;21.68;64.75;96884.81;4880961;29;20437;-76
2022/11/19 09:52:52;;;;;;;11.43;3.08;;;;;;;23.45;57.48;96879.53;4900551;29;20042;-77
2022/11/19 09:55:23;;;;;;;17.10;8.48;;;;;;;23.66;56.57;96859.59;4933509;29;20040;-76
2022/11/19 09:57:51;;;;;;;3.72;2.75;;;;;;;23.66;54.79;96838.59;4897911;29;20040;-76
2022/11/19 10:00:23;;;;;;;8.02;5.38;;;;;;;23.08;55.77;96820.44;4897670;29;20462;-76
2022/11/19 10:02:49;;;;;;;3.72;2.70;;;;;;;22.95;56.46;96812.09;4898510;29;20103;-75
2022/11/19 10:05:25;;;;;;;5.18;3.05;;;;;;;23.28;55.00;96819.84;4900811;29;20516;-76
2022/11/19 10:08:20;;;;;;;6.82;3.03;;;;;;;24.27;53.61;96817.16;4898018;29;20107;-77
2022/11/19 10:11:13;;;;;;;8.80;4.50;;;;;;;25.58;50.46;96806.09;4913754;29;20518;-77
2022/11/19 10:13:41;;;;;;;;;;;;;;;25.96;50.51;96818.22;4900196;29;20040;-75
2022/11/19 10:16:10;;;;;;;5.50;3.15;;;;;;;25.24;51.18;96802.38;4922735;29;20001;-76
2022/11/19 10:18:54;;;;;;;7.80;3.50;;;;;;;24.91;52.17;96795.06;4916769;29;20413;-75
2022/11/19 10:21:25;;;;;;;6.00;3.05;;;;;;;24.98;50.91;96791.31;4902474;29;20420;-76
2022/11/19 10:23:54;;;;;;;6.47;3.63;;;;;;;25.66;49.54;96795.78;4932351;29;20123;-75
2022/11/19 10:27:13;;;;;;;8.85;3.42;;;;;;;25.28;50.37;96768.09;4885597;29;20130;-75
2022/11/19 10:29:41;;;;;;;5.00;2.97;;;;;;;23.48;52.96;96741.78;4905692;29;20391;-76
2022/11/19 10:32:30;;;;;;;7.07;4.25;;;;;;;21.84;57.51;96751.25;4892840;29;20035;-76
2022/11/19 10:34:59;;;;;;;4.93;3.05;;;;;;;21.76;59.37;96762.22;4903281;29;20031;-77
2022/11/19 10:37:30;;;;;;;13.13;8.05;;;;;;;21.87;59.59;96766.38;4904475;29;20047;-76
2022/11/19 10:40:05;;;;;;;11.67;5.93;;;;;;;21.51;61.30;96767.00;4897877;29;20032;-76
2022/11/19 10:42:38;;;;;;;6.43;4.25;;;;;;;21.67;60.79;96774.22;4920097;29;20054;-76
2022/11/19 10:45:15;;;;;;;5.70;4.15;;;;;;;21.49;62.11;96793.56;4897510;29;20024;-76
2022/11/19 10:47:46;;;;;;;16.08;6.78;;;;;;;21.97;60.56;96811.41;4905721;29;20449;-77
2022/11/19 10:50:17;;;;;;;15.98;8.25;;;;;;;22.09;60.19;96803.63;4916856;29;20036;-80
2022/11/19 10:52:47;;;;;;;4.85;3.38;;;;;;;21.42;60.51;96778.13;4892685;29;20038;-75
2022/11/19 10:55:36;;;;;;;3.65;2.78;;;;;;;21.62;61.25;96788.34;4912356;29;20027;-75
2022/11/19 10:58:21;;;;;;;7.57;3.65;;;;;;;21.74;60.36;96790.66;4894314;29;20501;-74
2022/11/19 11:00:47;;;;;;;3.97;3.17;;;;;;;22.93;57.09;96800.53;4916060;29;20535;-75
2022/11/19 11:03:25;;;;;;;6.13;2.78;;;;;;;23.20;55.74;96796.22;4884575;29;20115;-75
2022/11/19 11:06:05;;;;;;;4.28;2.80;;;;;;;22.23;58.15;96785.63;4903819;29;20031;-74
2022/11/19 11:08:47;;;;;;;2.78;2.40;;;;;;;21.22;60.38;96763.34;4895748;29;20068;-76
2022/11/19 11:11:22;;;;;;;5.47;2.80;;;;;;;21.86;59.19;96792.78;4904316;29;20503;-75
2022/11/19 11:16:45;;;;;;;7.60;3.55;;;;;;;22.58;58.70;96795.81;4911457;29;20043;-75
2022/11/19 11:19:16;;;;;;;5.95;3.25;;;;;;;23.60;56.02;96820.25;4889589;29;20032;-76
2022/11/19 11:21:45;;;;;;;3.67;2.78;;;;;;;23.28;54.50;96785.22;4897305;29;20492;-77
2022/11/19 11:24:12;;;;;;;3.75;2.60;;;;;;;23.42;54.48;96783.50;4897566;29;20079;-76
2022/11/19 11:26:39;;;;;;;9.77;3.38;;;;;;;23.10;54.97;96758.34;4898773;29;20556;-78
2022/11/19 11:29:13;;;;;;;3.50;2.50;;;;;;;22.36;56.70;96761.31;4910438;29;20031;-75
2022/11/19 11:31:43;;;;;;;13.57;4.13;;;;;;;22.48;57.91;96779.75;4906491;29;20034;-76
2022/11/19 11:34:27;;;;;;;4.85;2.60;;;;;;;23.93;53.46;96800.63;4919107;29;20063;-74
2022/11/19 11:36:53;;;;;;;3.60;2.83;;;;;;;24.14;53.34;96781.50;4918933;29;20031;-74
2022/11/19 11:39:38;;;;;;;4.10;2.50;;;;;;;23.29;53.87;96747.88;4900362;29;20408;-75
2022/11/19 11:42:04;;;;;;;10.98;3.10;;;;;;;23.58;54.51;96765.00;4883901;29;20480;-75
2022/11/19 11:44:32;;;;;;;8.48;2.70;;;;;;;24.26;52.32;96768.97;4895321;29;20039;-76
2022/11/19 11:47:04;;;;;;;19.27;3.53;;;;;;;24.15;52.64;96767.63;4902825;29;20031;-76
2022/11/19 11:49:36;;;;;;;5.75;2.80;;;;;;;22.99;54.92;96742.47;4894766;29;20028;-76
2022/11/19 11:52:08;;;;;;;6.05;2.95;;;;;;;22.32;57.18;96743.66;4895486;29;20028;-76